Time;durP1;ratioP1;P1;durP2;ratioP2;P2;SDS_P1;SDS_P2;PMS_P1;PMS_P2;Temp;Humidity;BMP_temperature;BMP_pressure;BME280_temperature;BME280_humidity;BME280_pressure;Samples;Min_cycle;Max_cycle;Signal;HPM_P1;HPM_P2
2021/12/09 00:00:59;;;;;;;3.83;2.60;;;;;;;;;;6185633;23;20266;-92
2021/12/09 00:03:29;;;;;;;6.67;2.43;;;;;;;;;;6186074;23;20206;-91
2021/12/09 00:05:57;;;;;;;2.77;2.53;;;;;;;;;;6184737;23;20234;-91
2021/12/09 00:08:26;;;;;;;2.93;2.50;;;;;;;;;;6185176;23;20230;-91
2021/12/09 00:10:54;;;;;;;4.77;2.50;;;;;;;;;;6185353;23;20198;-92
2021/12/09 00:13:21;;;;;;;4.73;2.93;;;;;;;;;;6185215;23;20183;-91
2021/12/09 00:15:49;;;;;;;3.90;2.60;;;;;;;;;;6183999;23;20190;-92
2021/12/09 00:18:16;;;;;;;2.67;2.23;;;;;;;;;;6185451;23;20195;-91
2021/12/09 00:20:45;;;;;;;4.53;2.97;;;;;;;;;;6186096;23;20199;-92
2021/12/09 00:23:13;;;;;;;3.83;2.80;;;;;;;;;;6185012;23;20183;-92
2021/12/09 00:25:40;;;;;;;7.27;3.33;;;;;;;;;;6185253;23;20178;-92
2021/12/09 00:28:08;;;;;;;6.53;3.60;;;;;;;;;;6185670;23;20241;-92
2021/12/09 00:30:36;;;;;;;5.33;3.27;;;;;;;;;;6184179;23;20249;-92
2021/12/09 00:33:04;;;;;;;6.10;3.80;;;;;;;;;;6184944;23;20179;-92
2021/12/09 00:35:42;;;;;;;7.57;4.20;;;;;;;;;;6185355;23;20233;-92
2021/12/09 00:38:19;;;;;;;6.97;4.70;;;;;;;;;;6184706;23;20190;-92
2021/12/09 00:40:46;;;;;;;5.53;4.40;;;;;;;;;;6185162;23;20221;-92
2021/12/09 00:43:13;;;;;;;5.97;4.20;;;;;;;;;;6185484;23;20229;-92
2021/12/09 00:45:41;;;;;;;7.33;5.03;;;;;;;;;;6185497;23;20182;-91
2021/12/09 00:48:08;;;;;;;7.10;4.70;;;;;;;;;;6184882;23;20315;-92
2021/12/09 00:50:36;;;;;;;6.63;5.03;;;;;;;;;;6185039;23;20261;-91
2021/12/09 00:53:03;;;;;;;7.50;5.70;;;;;;;;;;6185397;23;20178;-92
2021/12/09 00:55:32;;;;;;;11.03;5.97;;;;;;;;;;6185223;23;20178;-92
2021/12/09 00:57:59;;;;;;;9.93;5.77;;;;;;;;;;6183989;23;20712;-92
2021/12/09 01:00:27;;;;;;;8.27;5.77;;;;;;;;;;6185314;23;20199;-92
2021/12/09 01:02:54;;;;;;;8.70;5.30;;;;;;;;;;6185466;23;20179;-92
2021/12/09 01:05:22;;;;;;;7.87;5.50;;;;;;;;;;6184154;23;20229;-92
2021/12/09 01:07:49;;;;;;;5.73;4.97;;;;;;;;;;6184391;23;20187;-92
2021/12/09 01:10:17;;;;;;;8.27;5.50;;;;;;;;;;6184997;23;20249;-92
2021/12/09 01:12:46;;;;;;;9.07;4.93;;;;;;;;;;6185196;23;20238;-93
2021/12/09 01:15:16;;;;;;;5.53;4.43;;;;;;;;;;6184340;23;20233;-92
2021/12/09 01:17:43;;;;;;;7.20;4.90;;;;;;;;;;6185039;23;20197;-92
2021/12/09 01:20:11;;;;;;;5.97;4.50;;;;;;;;;;6184791;23;20198;-92
2021/12/09 01:22:42;;;;;;;6.77;4.10;;;;;;;;;;6183059;23;20241;-93
2021/12/09 01:25:10;;;;;;;4.60;4.00;;;;;;;;;;6184373;23;20182;-92
2021/12/09 01:27:39;;;;;;;3.20;2.90;;;;;;;;;;6184678;23;20178;-92
2021/12/09 01:30:13;;;;;;;6.47;3.87;;;;;;;;;;6185024;23;20197;-92
2021/12/09 01:32:43;;;;;;;3.67;3.37;;;;;;;;;;6184139;23;20334;-92
2021/12/09 01:35:11;;;;;;;6.80;3.43;;;;;;;;;;6184704;23;20249;-92
2021/12/09 01:37:39;;;;;;;5.47;3.57;;;;;;;;;;6184758;23;20179;-92
2021/12/09 01:40:07;;;;;;;5.07;2.97;;;;;;;;;;6184159;23;20207;-92
2021/12/09 01:42:35;;;;;;;4.00;3.03;;;;;;;;;;6184436;23;20179;-93
2021/12/09 01:45:02;;;;;;;2.80;2.60;;;;;;;;;;6184648;23;20610;-92
2021/12/09 01:47:31;;;;;;;3.27;2.40;;;;;;;;;;6184714;23;20179;-92
2021/12/09 01:49:59;;;;;;;3.40;2.60;;;;;;;;;;6183622;23;20682;-92
2021/12/09 01:52:26;;;;;;;3.50;2.90;;;;;;;;;;6184733;23;20666;-92
2021/12/09 01:54:54;;;;;;;5.10;2.60;;;;;;;;;;6185032;23;20175;-92
2021/12/09 01:57:23;;;;;;;4.67;2.50;;;;;;;;;;6183767;23;20178;-92
2021/12/09 01:59:59;;;;;;;2.83;2.50;;;;;;;;;;6184345;23;20269;-92
2021/12/09 02:02:26;;;;;;;2.40;2.20;;;;;;;;;;6183869;23;20181;-92
2021/12/09 02:04:55;;;;;;;3.33;2.50;;;;;;;;;;6184785;23;20179;-93
2021/12/09 02:07:22;;;;;;;4.90;2.83;;;;;;;;;;6184711;23;20504;-92
2021/12/09 02:09:50;;;;;;;3.63;2.57;;;;;;;;;;6183290;23;20198;-93
2021/12/09 02:12:17;;;;;;;2.77;2.27;;;;;;;;;;6184428;23;20213;-92
2021/12/09 02:14:46;;;;;;;4.07;2.60;;;;;;;;;;6184435;23;20179;-92
2021/12/09 02:17:14;;;;;;;3.13;2.83;;;;;;;;;;6184464;23;20190;-92
2021/12/09 02:19:43;;;;;;;3.77;2.63;;;;;;;;;;6183749;23;20210;-92
2021/12/09 02:22:13;;;;;;;3.70;2.20;;;;;;;;;;6184338;23;20253;-92
2021/12/09 02:24:41;;;;;;;2.40;2.20;;;;;;;;;;6184516;23;20194;-92
2021/12/09 02:27:08;;;;;;;5.40;2.53;;;;;;;;;;6183549;23;20190;-92
2021/12/09 02:29:37;;;;;;;3.30;2.33;;;;;;;;;;6184204;23;20517;-92
2021/12/09 02:32:05;;;;;;;4.37;2.50;;;;;;;;;;6184484;23;20185;-92
2021/12/09 02:34:32;;;;;;;2.80;2.43;;;;;;;;;;6184739;23;20178;-92
2021/12/09 02:37:00;;;;;;;3.00;2.60;;;;;;;;;;6183012;23;20182;-92
2021/12/09 02:39:29;;;;;;;2.70;2.50;;;;;;;;;;6184354;23;20209;-93
2021/12/09 02:41:56;;;;;;;4.37;2.60;;;;;;;;;;6184514;23;20734;-92
2021/12/09 02:44:24;;;;;;;3.13;2.30;;;;;;;;;;6184812;23;20175;-92
2021/12/09 02:46:53;;;;;;;4.73;2.60;;;;;;;;;;6183691;23;20182;-92
2021/12/09 02:49:21;;;;;;;3.83;3.10;;;;;;;;;;6184122;23;20401;-92
2021/12/09 02:51:50;;;;;;;4.73;2.33;;;;;;;;;;6184838;23;20178;-92
2021/12/09 02:54:18;;;;;;;3.27;2.60;;;;;;;;;;6183682;23;20175;-92
2021/12/09 02:56:48;;;;;;;2.67;2.47;;;;;;;;;;6184166;23;20175;-92
2021/12/09 02:59:15;;;;;;;2.87;2.67;;;;;;;;;;6184616;23;20202;-92
2021/12/09 03:01:54;;;;;;;4.73;3.20;;;;;;;;;;6183978;23;20186;-92
2021/12/09 03:04:24;;;;;;;4.57;2.77;;;;;;;;;;6184496;23;20171;-92
2021/12/09 03:06:54;;;;;;;3.27;2.97;;;;;;;;;;6184005;23;20193;-92
2021/12/09 03:09:22;;;;;;;4.30;3.37;;;;;;;;;;6184439;23;20591;-92
2021/12/09 03:11:55;;;;;;;3.87;3.50;;;;;;;;;;6183807;23;20178;-92
2021/12/09 03:14:24;;;;;;;4.97;3.90;;;;;;;;;;6184453;23;20186;-92
2021/12/09 03:16:52;;;;;;;5.10;4.20;;;;;;;;;;6184747;23;20197;-92
2021/12/09 03:19:19;;;;;;;5.70;3.40;;;;;;;;;;6184261;23;20202;-92
2021/12/09 03:21:47;;;;;;;4.87;3.30;;;;;;;;;;6183965;23;20175;-92
2021/12/09 03:24:17;;;;;;;4.70;3.80;;;;;;;;;;6184223;23;20175;-92
2021/12/09 03:26:46;;;;;;;5.00;4.50;;;;;;;;;;6183965;23;20179;-92
2021/12/09 03:29:16;;;;;;;5.60;4.20;;;;;;;;;;6184225;23;20195;-93
2021/12/09 03:31:45;;;;;;;4.30;3.80;;;;;;;;;;6183734;23;20181;-92
2021/12/09 03:34:13;;;;;;;5.77;4.77;;;;;;;;;;6184561;23;20175;-92
2021/12/09 03:36:41;;;;;;;6.57;4.60;;;;;;;;;;6184572;23;20258;-93
2021/12/09 03:39:10;;;;;;;7.67;4.87;;;;;;;;;;6184087;23;20199;-92
2021/12/09 03:41:38;;;;;;;5.73;4.67;;;;;;;;;;6184381;23;20175;-92
2021/12/09 03:44:06;;;;;;;8.17;5.17;;;;;;;;;;6184931;23;20178;-93
2021/12/09 03:46:35;;;;;;;6.90;5.07;;;;;;;;;;6184500;23;20174;-92
2021/12/09 03:49:03;;;;;;;9.50;5.47;;;;;;;;;;6185252;23;20195;-92
2021/12/09 03:51:30;;;;;;;7.77;4.87;;;;;;;;;;6186324;23;20178;-92
2021/12/09 03:53:58;;;;;;;5.90;4.97;;;;;;;;;;6185918;23;20618;-92
2021/12/09 03:56:25;;;;;;;7.17;5.47;;;;;;;;;;6183756;23;20179;-93
2021/12/09 03:58:52;;;;;;;7.27;5.07;;;;;;;;;;6185870;23;20174;-92
2021/12/09 04:01:20;;;;;;;7.20;5.30;;;;;;;;;;6186110;23;20614;-92
2021/12/09 04:03:49;;;;;;;8.97;5.67;;;;;;;;;;6184815;23;20182;-93
2021/12/09 04:06:17;;;;;;;6.90;4.97;;;;;;;;;;6185509;23;20248;-92
2021/12/09 04:08:44;;;;;;;6.77;4.80;;;;;;;;;;6185583;23;20547;-92
2021/12/09 04:11:12;;;;;;;5.30;4.70;;;;;;;;;;6186181;23;20819;-92
2021/12/09 04:13:40;;;;;;;5.53;4.93;;;;;;;;;;6185388;23;20249;-92
2021/12/09 04:16:08;;;;;;;9.70;5.23;;;;;;;;;;6185342;23;20206;-92
2021/12/09 04:18:35;;;;;;;9.03;4.47;;;;;;;;;;6186143;23;20185;-92
2021/12/09 04:21:05;;;;;;;7.57;5.17;;;;;;;;;;6185342;23;20206;-92
2021/12/09 04:23:32;;;;;;;7.43;5.33;;;;;;;;;;6185509;23;20282;-92
2021/12/09 04:26:00;;;;;;;5.93;4.63;;;;;;;;;;6185905;23;20175;-93
2021/12/09 04:28:28;;;;;;;6.50;4.87;;;;;;;;;;6186021;23;20502;-92
2021/12/09 04:30:55;;;;;;;7.70;5.27;;;;;;;;;;6185316;23;20199;-93
2021/12/09 04:33:22;;;;;;;6.47;4.73;;;;;;;;;;6185753;23;20233;-93
2021/12/09 04:35:50;;;;;;;5.43;4.47;;;;;;;;;;6186321;23;20174;-92
2021/12/09 04:38:19;;;;;;;6.07;5.30;;;;;;;;;;6185047;23;20190;-92
2021/12/09 04:40:46;;;;;;;8.63;5.20;;;;;;;;;;6185198;23;20247;-92
2021/12/09 04:43:13;;;;;;;6.07;4.90;;;;;;;;;;6185150;23;20233;-92
2021/12/09 04:45:41;;;;;;;6.27;4.87;;;;;;;;;;6185350;23;20182;-92
2021/12/09 04:48:09;;;;;;;7.47;4.80;;;;;;;;;;6185421;23;20186;-92
2021/12/09 04:50:37;;;;;;;5.97;5.00;;;;;;;;;;6185348;23;20249;-92
2021/12/09 04:53:05;;;;;;;7.93;5.47;;;;;;;;;;6184736;23;20178;-92
2021/12/09 04:55:34;;;;;;;7.30;5.43;;;;;;;;;;6185072;23;20179;-92
2021/12/09 04:58:01;;;;;;;7.90;4.90;;;;;;;;;;6185441;23;20186;-92
2021/12/09 05:00:31;;;;;;;8.93;5.20;;;;;;;;;;6185306;23;20642;-93
2021/12/09 05:03:04;;;;;;;7.50;4.90;;;;;;;;;;6185100;23;20185;-92
2021/12/09 05:05:35;;;;;;;5.83;4.57;;;;;;;;;;6184461;23;20183;-92
2021/12/09 05:08:05;;;;;;;8.70;5.33;;;;;;;;;;6184674;23;20202;-92
2021/12/09 05:10:36;;;;;;;8.07;5.20;;;;;;;;;;6183736;23;20197;-92
2021/12/09 05:13:05;;;;;;;5.93;4.70;;;;;;;;;;6185307;23;20167;-92
2021/12/09 05:15:33;;;;;;;6.67;4.80;;;;;;;;;;6190554;23;20190;-95
2021/12/09 05:18:00;;;;;;;6.97;4.03;;;;;;;;;;6191216;23;20178;-92
2021/12/09 05:20:28;;;;;;;7.40;4.93;;;;;;;;;;6190860;23;20198;-93
2021/12/09 05:22:55;;;;;;;7.83;4.73;;;;;;;;;;6191575;23;20179;-92
2021/12/09 05:25:29;;;;;;;8.60;4.57;;;;;;;;;;6191448;23;20183;-93
2021/12/09 05:27:58;;;;;;;7.27;5.20;;;;;;;;;;6190687;23;20167;-93
2021/12/09 05:30:37;;;;;;;5.40;4.47;;;;;;;;;;6190872;23;20241;-92
2021/12/09 05:33:04;;;;;;;9.47;4.93;;;;;;;;;;6191214;23;20170;-93
2021/12/09 05:35:31;;;;;;;7.17;4.70;;;;;;;;;;6191001;23;20181;-93
2021/12/09 05:37:58;;;;;;;7.97;5.17;;;;;;;;;;6189018;23;20182;-92
2021/12/09 05:40:26;;;;;;;11.20;5.47;;;;;;;;;;6208839;23;20208;-90
2021/12/09 05:42:53;;;;;;;7.13;5.00;;;;;;;;;;6210085;23;20166;-90
2021/12/09 05:45:22;;;;;;;6.80;4.83;;;;;;;;;;6209718;23;20170;-90
2021/12/09 05:47:49;;;;;;;10.73;5.03;;;;;;;;;;6209623;23;20227;-91
2021/12/09 05:50:16;;;;;;;7.50;5.00;;;;;;;;;;6209778;23;20187;-91
2021/12/09 05:52:45;;;;;;;8.47;5.37;;;;;;;;;;6209844;23;20170;-91
2021/12/09 05:55:12;;;;;;;6.43;5.20;;;;;;;;;;6208425;23;20264;-92
2021/12/09 05:57:40;;;;;;;6.80;5.27;;;;;;;;;;6208332;23;20174;-91
2021/12/09 06:00:08;;;;;;;11.40;5.13;;;;;;;;;;6209067;23;20258;-90
2021/12/09 06:02:37;;;;;;;5.23;4.27;;;;;;;;;;6208274;23;20163;-91
2021/12/09 06:05:04;;;;;;;7.23;4.83;;;;;;;;;;6208795;23;20238;-91
2021/12/09 06:07:31;;;;;;;6.80;4.80;;;;;;;;;;6208521;23;20194;-91
2021/12/09 06:10:00;;;;;;;6.57;4.67;;;;;;;;;;6209561;23;20222;-92
2021/12/09 06:12:28;;;;;;;6.87;4.80;;;;;;;;;;6207005;23;20175;-90
2021/12/09 06:14:55;;;;;;;8.97;4.63;;;;;;;;;;6209673;23;20174;-91
2021/12/09 06:17:23;;;;;;;6.63;5.37;;;;;;;;;;6209091;23;20175;-91
2021/12/09 06:19:51;;;;;;;6.23;4.07;;;;;;;;;;6209209;23;22155;-91
2021/12/09 06:22:19;;;;;;;11.30;4.90;;;;;;;;;;6207549;23;20209;-91
2021/12/09 06:24:46;;;;;;;7.07;4.50;;;;;;;;;;6209477;23;20173;-90
2021/12/09 06:27:14;;;;;;;6.80;4.00;;;;;;;;;;6209602;23;20167;-91
2021/12/09 06:29:41;;;;;;;7.50;4.60;;;;;;;;;;6209368;23;20222;-90
2021/12/09 06:32:11;;;;;;;6.23;4.10;;;;;;;;;;6207687;23;20173;-91
2021/12/09 06:34:39;;;;;;;7.03;4.40;;;;;;;;;;6209248;23;20178;-92
2021/12/09 06:37:08;;;;;;;7.57;4.97;;;;;;;;;;6209377;23;20183;-90
2021/12/09 06:39:52;;;;;;;9.17;5.60;;;;;;;;;;6210106;23;20183;-92
2021/12/09 06:42:19;;;;;;;7.00;4.70;;;;;;;;;;6207950;23;20206;-91
2021/12/09 06:44:47;;;;;;;5.60;4.70;;;;;;;;;;6209367;23;20166;-91
2021/12/09 06:47:14;;;;;;;6.67;3.93;;;;;;;;;;6209269;23;20173;-92
2021/12/09 06:49:43;;;;;;;6.63;3.73;;;;;;;;;;6208448;23;20182;-92
2021/12/09 06:52:13;;;;;;;3.70;3.30;;;;;;;;;;6209313;23;20163;-91
2021/12/09 06:54:53;;;;;;;7.03;4.63;;;;;;;;;;6209458;23;20189;-90
2021/12/09 06:57:21;;;;;;;7.00;5.10;;;;;;;;;;6209892;23;20166;-90
2021/12/09 07:02:37;;;;;;;7.77;4.97;;;;;;;;;;6209573;23;20182;-91
2021/12/09 07:05:05;;;;;;;7.30;4.50;;;;;;;;;;6210118;23;20162;-91
2021/12/09 07:07:33;;;;;;;6.77;3.97;;;;;;;;;;6207900;23;20209;-91
2021/12/09 07:10:01;;;;;;;6.50;4.17;;;;;;;;;;6209773;23;20194;-91
2021/12/09 07:12:29;;;;;;;5.60;4.63;;;;;;;;;;6210057;23;20178;-91
2021/12/09 07:14:57;;;;;;;6.90;4.50;;;;;;;;;;6208742;23;20165;-91
2021/12/09 07:17:24;;;;;;;9.33;4.43;;;;;;;;;;6209312;23;20206;-92
2021/12/09 07:19:51;;;;;;;7.20;4.53;;;;;;;;;;6209984;23;20189;-91
2021/12/09 07:22:19;;;;;;;6.90;4.93;;;;;;;;;;6210251;23;20210;-91
2021/12/09 07:24:47;;;;;;;8.43;4.63;;;;;;;;;;6210901;23;20225;-92
2021/12/09 07:27:15;;;;;;;8.17;4.67;;;;;;;;;;6211649;23;20182;-92
2021/12/09 07:29:43;;;;;;;9.27;4.50;;;;;;;;;;6211843;23;20221;-90
2021/12/09 07:32:10;;;;;;;6.80;4.10;;;;;;;;;;6211851;23;20170;-90
2021/12/09 07:34:38;;;;;;;6.47;4.13;;;;;;;;;;6210349;23;20159;-90
2021/12/09 07:37:05;;;;;;;9.37;4.43;;;;;;;;;;6211229;23;20206;-91
2021/12/09 07:39:34;;;;;;;6.83;4.10;;;;;;;;;;6211749;23;20250;-91
2021/12/09 07:42:03;;;;;;;6.27;3.93;;;;;;;;;;6209795;23;20198;-92
2021/12/09 07:44:31;;;;;;;4.73;3.90;;;;;;;;;;6210706;23;20175;-91
2021/12/09 07:46:59;;;;;;;5.50;4.30;;;;;;;;;;6211035;23;20175;-90
2021/12/09 07:49:27;;;;;;;5.47;4.17;;;;;;;;;;6211544;23;20194;-91
2021/12/09 07:51:55;;;;;;;5.23;4.03;;;;;;;;;;6210159;23;20167;-91
2021/12/09 07:54:23;;;;;;;6.90;4.30;;;;;;;;;;6210452;23;20245;-93
2021/12/09 07:56:50;;;;;;;7.40;4.13;;;;;;;;;;6210588;23;20185;-90
2021/12/09 07:59:19;;;;;;;6.03;4.30;;;;;;;;;;6209906;23;20214;-91
2021/12/09 08:01:47;;;;;;;6.53;4.03;;;;;;;;;;6211437;23;20241;-91
2021/12/09 08:04:14;;;;;;;5.80;4.03;;;;;;;;;;6205830;23;20194;-90
2021/12/09 08:06:42;;;;;;;11.63;4.60;;;;;;;;;;6205832;23;20163;-90
2021/12/09 08:09:09;;;;;;;5.97;4.10;;;;;;;;;;6206609;23;20183;-92
2021/12/09 08:11:37;;;;;;;5.87;4.43;;;;;;;;;;6207108;23;20194;-90
2021/12/09 08:14:05;;;;;;;6.47;4.60;;;;;;;;;;6206326;23;20155;-91
2021/12/09 08:16:37;;;;;;;4.80;4.17;;;;;;;;;;6206320;23;20187;-92
2021/12/09 08:19:05;;;;;;;6.37;3.87;;;;;;;;;;6206732;23;20190;-91
2021/12/09 08:21:35;;;;;;;7.50;4.40;;;;;;;;;;6205967;23;20191;-90
2021/12/09 08:24:02;;;;;;;10.33;4.90;;;;;;;;;;6206264;23;20163;-90
2021/12/09 08:26:30;;;;;;;6.10;4.20;;;;;;;;;;6205298;23;20155;-90
2021/12/09 08:28:57;;;;;;;5.90;4.87;;;;;;;;;;6206372;23;20167;-91
2021/12/09 08:31:27;;;;;;;6.67;4.77;;;;;;;;;;6203927;23;20174;-92
2021/12/09 08:33:56;;;;;;;7.37;4.80;;;;;;;;;;6204541;23;20154;-92
2021/12/09 08:36:23;;;;;;;6.43;5.17;;;;;;;;;;6204818;23;20179;-90
2021/12/09 08:38:51;;;;;;;9.53;4.80;;;;;;;;;;6205660;23;20167;-93
2021/12/09 08:41:19;;;;;;;8.53;4.87;;;;;;;;;;6202384;23;20249;-91
2021/12/09 08:43:46;;;;;;;6.77;5.13;;;;;;;;;;6204451;23;20178;-91
2021/12/09 08:46:15;;;;;;;6.73;4.77;;;;;;;;;;6206008;23;20182;-92
2021/12/09 08:48:43;;;;;;;5.57;4.30;;;;;;;;;;6204216;23;20185;-91
2021/12/09 08:51:11;;;;;;;7.77;4.63;;;;;;;;;;6203578;23;20167;-91
2021/12/09 08:53:39;;;;;;;7.57;4.90;;;;;;;;;;6203740;23;20182;-91
2021/12/09 08:56:06;;;;;;;10.13;5.00;;;;;;;;;;6201439;23;20185;-92
2021/12/09 08:58:33;;;;;;;7.97;4.37;;;;;;;;;;6201564;23;20192;-93
2021/12/09 09:01:01;;;;;;;7.80;4.90;;;;;;;;;;6201957;23;20198;-91
2021/12/09 09:03:29;;;;;;;7.63;3.90;;;;;;;;;;6200977;23;20413;-93
2021/12/09 09:05:59;;;;;;;5.40;4.33;;;;;;;;;;6202559;23;20204;-92
2021/12/09 09:08:28;;;;;;;8.63;3.93;;;;;;;;;;6201453;23;20187;-91
2021/12/09 09:10:55;;;;;;;7.13;4.53;;;;;;;;;;6202373;23;20222;-91
2021/12/09 09:13:23;;;;;;;7.47;4.87;;;;;;;;;;6201153;23;20437;-93
2021/12/09 09:15:50;;;;;;;9.60;4.47;;;;;;;;;;6200475;23;20205;-92
2021/12/09 09:18:18;;;;;;;8.17;4.17;;;;;;;;;;6200318;23;20179;-90
2021/12/09 09:20:46;;;;;;;5.03;3.67;;;;;;;;;;6199754;23;20849;-92
2021/12/09 09:23:15;;;;;;;4.83;3.63;;;;;;;;;;6196968;23;20187;-91
2021/12/09 09:25:44;;;;;;;6.40;3.70;;;;;;;;;;6200074;23;20193;-91
2021/12/09 09:28:12;;;;;;;6.80;4.40;;;;;;;;;;6200082;23;20206;-91
2021/12/09 09:30:40;;;;;;;8.13;3.90;;;;;;;;;;6200871;23;20199;-92
2021/12/09 09:33:09;;;;;;;7.80;4.20;;;;;;;;;;6200135;23;20178;-91
2021/12/09 09:35:37;;;;;;;7.97;4.67;;;;;;;;;;6199696;23;20179;-90
2021/12/09 09:38:05;;;;;;;7.17;4.00;;;;;;;;;;6198029;23;20178;-92
2021/12/09 09:40:39;;;;;;;8.23;4.37;;;;;;;;;;6197951;23;20246;-92
2021/12/09 09:43:25;;;;;;;4.60;4.10;;;;;;;;;;6197447;23;20188;-91
2021/12/09 09:45:53;;;;;;;8.57;4.00;;;;;;;;;;6198993;23;20162;-92
2021/12/09 09:48:20;;;;;;;6.43;4.43;;;;;;;;;;6196563;23;20194;-92
2021/12/09 09:50:49;;;;;;;9.47;3.80;;;;;;;;;;6197725;23;20198;-92
2021/12/09 09:53:17;;;;;;;4.83;4.27;;;;;;;;;;6196956;23;20182;-91
2021/12/09 09:55:47;;;;;;;5.00;3.87;;;;;;;;;;6194374;23;20186;-94
2021/12/09 09:58:16;;;;;;;5.20;3.70;;;;;;;;;;6195532;23;20211;-91
2021/12/09 10:00:43;;;;;;;5.70;3.70;;;;;;;;;;6197243;23;20209;-91
2021/12/09 10:03:16;;;;;;;11.10;4.07;;;;;;;;;;6193913;23;20179;-93
2021/12/09 10:05:44;;;;;;;5.70;3.87;;;;;;;;;;6196614;23;20170;-93
2021/12/09 10:08:13;;;;;;;6.90;4.00;;;;;;;;;;6193082;23;20190;-92
2021/12/09 10:10:41;;;;;;;11.00;4.30;;;;;;;;;;6196443;23;20198;-91
2021/12/09 10:13:09;;;;;;;5.07;3.70;;;;;;;;;;6194489;23;20190;-93
2021/12/09 10:15:39;;;;;;;5.20;3.90;;;;;;;;;;6192460;23;20194;-92
2021/12/09 10:18:07;;;;;;;5.53;3.97;;;;;;;;;;6193749;23;20625;-90
2021/12/09 10:20:52;;;;;;;4.43;3.40;;;;;;;;;;6195607;23;20198;-92
2021/12/09 10:23:27;;;;;;;4.47;3.13;;;;;;;;;;6194978;23;20190;-92
2021/12/09 10:26:09;;;;;;;3.97;3.43;;;;;;;;;;6193339;23;20182;-93
2021/12/09 10:28:40;;;;;;;7.97;4.23;;;;;;;;;;6192398;23;20170;-91
2021/12/09 10:31:14;;;;;;;7.80;3.57;;;;;;;;;;6193668;23;20693;-92
2021/12/09 10:33:59;;;;;;;6.77;3.77;;;;;;;;;;6192646;23;20177;-92
2021/12/09 10:36:46;;;;;;;4.37;3.90;;;;;;;;;;6193940;23;20179;-92
2021/12/09 10:39:18;;;;;;;8.10;3.30;;;;;;;;;;6191685;23;20241;-91
2021/12/09 10:41:46;;;;;;;5.87;3.33;;;;;;;;;;6191503;23;20230;-90
2021/12/09 10:44:13;;;;;;;3.33;3.03;;;;;;;;;;6193154;23;20253;-92
2021/12/09 10:46:52;;;;;;;3.80;3.20;;;;;;;;;;6192112;23;20179;-93
2021/12/09 10:49:21;;;;;;;5.03;3.53;;;;;;;;;;6194959;23;20245;-91
2021/12/09 10:52:00;;;;;;;5.40;2.93;;;;;;;;;;6190768;23;20175;-91
2021/12/09 10:54:32;;;;;;;5.07;3.30;;;;;;;;;;6189904;23;20610;-92
2021/12/09 10:57:22;;;;;;;4.87;3.47;;;;;;;;;;6188521;23;20258;-90
2021/12/09 10:59:49;;;;;;;6.83;3.30;;;;;;;;;;6191815;23;20202;-93
2021/12/09 11:02:18;;;;;;;4.70;3.00;;;;;;;;;;6192538;23;20221;-91
2021/12/09 11:04:58;;;;;;;4.63;2.57;;;;;;;;;;6194622;23;20186;-93
2021/12/09 11:07:29;;;;;;;4.00;2.97;;;;;;;;;;6193182;23;20240;-92
2021/12/09 11:10:11;;;;;;;4.77;2.90;;;;;;;;;;6193416;23;20366;-93
2021/12/09 11:12:39;;;;;;;5.03;2.87;;;;;;;;;;6193664;23;20175;-91
2021/12/09 11:15:06;;;;;;;3.37;2.90;;;;;;;;;;6191238;23;20206;-92
2021/12/09 11:17:41;;;;;;;3.77;2.57;;;;;;;;;;6192746;23;20174;-93
2021/12/09 11:20:09;;;;;;;6.03;3.30;;;;;;;;;;6193865;23;20198;-91
2021/12/09 11:22:38;;;;;;;4.27;2.70;;;;;;;;;;6194261;23;20206;-92
2021/12/09 11:25:07;;;;;;;3.03;2.73;;;;;;;;;;6194444;23;20235;-92
2021/12/09 11:27:34;;;;;;;2.70;2.50;;;;;;;;;;6198144;23;20294;-92
2021/12/09 11:30:09;;;;;;;3.73;2.20;;;;;;;;;;6194857;23;20198;-90
2021/12/09 11:32:44;;;;;;;2.67;2.47;;;;;;;;;;6191797;23;20201;-92
2021/12/09 11:35:15;;;;;;;3.00;2.37;;;;;;;;;;6193519;23;20174;-92
2021/12/09 11:37:47;;;;;;;2.67;2.33;;;;;;;;;;6192860;23;20189;-92
2021/12/09 11:40:21;;;;;;;5.77;3.00;;;;;;;;;;6191948;23;20198;-92
2021/12/09 11:42:51;;;;;;;4.80;2.70;;;;;;;;;;6190613;23;20225;-92
2021/12/09 11:45:20;;;;;;;3.83;2.43;;;;;;;;;;6192339;23;20242;-91
2021/12/09 11:47:50;;;;;;;4.33;2.47;;;;;;;;;;6194979;23;20179;-92
2021/12/09 11:50:19;;;;;;;2.80;2.37;;;;;;;;;;6195303;23;20195;-94
2021/12/09 11:52:47;;;;;;;2.80;2.17;;;;;;;;;;6191613;23;20167;-90
2021/12/09 13:35:11;;;;;;;6.00;1.77;;;;;;;;;;6183670;23;20237;-89
2021/12/09 13:38:05;;;;;;;3.53;1.90;;;;;;;;;;6184416;23;20213;-91
2021/12/09 13:45:48;;;;;;;3.80;1.70;;;;;;;;;;6185200;23;20199;-91
2021/12/09 13:46:23;;;;;;;2.10;1.33;;;;;;;;;;6138088;23;20175;-92
2021/12/09 13:49:03;;;;;;;3.37;1.73;;;;;;;;;;6184373;23;20257;-92
2021/12/09 13:51:54;;;;;;;3.07;1.50;;;;;;;;;;6185293;23;20178;-91
2021/12/09 13:54:24;;;;;;;3.37;1.70;;;;;;;;;;6185834;23;20166;-92
2021/12/09 13:56:56;;;;;;;4.60;1.57;;;;;;;;;;6184314;23;20197;-92
2021/12/09 13:59:24;;;;;;;4.83;1.30;;;;;;;;;;6184431;23;20206;-91
2021/12/09 14:01:53;;;;;;;3.73;1.60;;;;;;;;;;6185211;23;20650;-91
2021/12/09 14:04:22;;;;;;;2.17;1.50;;;;;;;;;;6185167;23;20174;-91
2021/12/09 14:06:58;;;;;;;3.37;1.83;;;;;;;;;;6183351;23;20508;-92
2021/12/09 14:09:27;;;;;;;1.73;1.63;;;;;;;;;;6184988;23;20198;-91
2021/12/09 14:11:54;;;;;;;4.17;1.50;;;;;;;;;;6185661;23;20242;-91
2021/12/09 14:14:25;;;;;;;6.73;1.43;;;;;;;;;;6183976;23;20253;-91
2021/12/09 14:16:56;;;;;;;1.77;1.50;;;;;;;;;;6185053;23;20194;-91
2021/12/09 14:22:14;;;;;;;4.10;1.83;;;;;;;;;;6186689;23;20189;-92
2021/12/09 14:24:43;;;;;;;6.33;1.43;;;;;;;;;;6185243;23;20177;-90
2021/12/09 14:27:12;;;;;;;3.20;1.43;;;;;;;;;;6185428;23;20187;-92
2021/12/09 14:29:39;;;;;;;6.53;1.27;;;;;;;;;;6185819;23;20202;-92
2021/12/09 14:32:08;;;;;;;4.10;1.47;;;;;;;;;;6183500;23;20241;-92
2021/12/09 14:34:39;;;;;;;6.10;1.70;;;;;;;;;;6184730;23;20229;-90
2021/12/09 14:37:07;;;;;;;4.77;1.50;;;;;;;;;;6184757;23;20182;-93
2021/12/09 14:39:36;;;;;;;6.87;2.40;;;;;;;;;;6185403;23;20263;-92
2021/12/09 14:42:09;;;;;;;5.10;3.13;;;;;;;;;;6183736;23;20195;-91
2021/12/09 14:44:37;;;;;;;11.53;5.03;;;;;;;;;;6184813;23;20241;-92
2021/12/09 14:47:08;;;;;;;6.90;5.13;;;;;;;;;;6184249;23;20178;-92
2021/12/09 14:49:42;;;;;;;8.23;4.60;;;;;;;;;;6185086;23;20207;-92
2021/12/09 14:52:10;;;;;;;11.00;5.27;;;;;;;;;;6183771;23;20179;-92
2021/12/09 14:54:39;;;;;;;12.50;4.93;;;;;;;;;;6184820;23;20213;-92
2021/12/09 14:57:07;;;;;;;7.43;4.03;;;;;;;;;;6184701;23;20626;-92
2021/12/09 14:59:35;;;;;;;7.93;4.30;;;;;;;;;;6183507;23;20285;-89
2021/12/09 15:02:11;;;;;;;6.27;4.70;;;;;;;;;;6184405;23;20199;-91
2021/12/09 15:04:44;;;;;;;5.50;3.53;;;;;;;;;;6185354;23;20182;-92
2021/12/09 15:07:16;;;;;;;5.90;3.93;;;;;;;;;;6184656;23;20233;-92
2021/12/09 15:09:46;;;;;;;6.73;5.10;;;;;;;;;;6184332;23;20198;-91
2021/12/09 15:12:14;;;;;;;6.53;4.20;;;;;;;;;;6184922;23;20178;-91
2021/12/09 15:14:43;;;;;;;15.37;8.60;;;;;;;;;;6185344;23;20179;-92
2021/12/09 15:17:12;;;;;;;12.07;6.27;;;;;;;;;;6183782;23;20175;-92
2021/12/09 15:19:40;;;;;;;12.33;6.57;;;;;;;;;;6184396;23;20253;-91
2021/12/09 15:22:10;;;;;;;10.53;5.07;;;;;;;;;;6184655;23;20187;-92
2021/12/09 15:24:41;;;;;;;8.17;4.43;;;;;;;;;;6185185;23;20500;-92
2021/12/09 15:27:09;;;;;;;9.33;4.40;;;;;;;;;;6183213;23;20248;-92
2021/12/09 15:29:47;;;;;;;9.37;4.43;;;;;;;;;;6185084;23;20238;-92
2021/12/09 15:32:14;;;;;;;11.27;5.37;;;;;;;;;;6185054;23;20225;-92
2021/12/09 15:34:45;;;;;;;11.93;5.80;;;;;;;;;;6183657;23;20202;-92
2021/12/09 15:37:14;;;;;;;11.53;5.53;;;;;;;;;;6184231;23;20214;-92
2021/12/09 15:39:43;;;;;;;9.57;4.10;;;;;;;;;;6184851;23;20195;-92
2021/12/09 15:42:13;;;;;;;9.40;4.30;;;;;;;;;;6184957;23;20237;-92
2021/12/09 15:44:42;;;;;;;8.43;4.23;;;;;;;;;;6184952;23;20179;-91
2021/12/09 15:47:10;;;;;;;7.20;3.77;;;;;;;;;;6185775;23;20178;-92
2021/12/09 15:49:42;;;;;;;9.70;4.53;;;;;;;;;;6186747;23;20201;-90
2021/12/09 15:52:10;;;;;;;12.17;3.80;;;;;;;;;;6186982;23;20179;-91
2021/12/09 15:54:39;;;;;;;7.67;3.97;;;;;;;;;;6185026;23;20179;-91
2021/12/09 15:57:08;;;;;;;5.20;3.63;;;;;;;;;;6185883;23;20233;-90
2021/12/09 15:59:38;;;;;;;32.27;17.93;;;;;;;;;;6184627;23;20253;-92
2021/12/09 16:02:07;;;;;;;26.00;12.20;;;;;;;;;;6185993;23;20228;-91
2021/12/09 16:04:34;;;;;;;8.87;5.50;;;;;;;;;;6186824;23;20178;-92
2021/12/09 16:07:02;;;;;;;8.87;4.47;;;;;;;;;;6185461;23;20237;-91
2021/12/09 16:09:30;;;;;;;8.33;4.60;;;;;;;;;;6186003;23;20577;-92
2021/12/09 16:12:00;;;;;;;8.83;4.80;;;;;;;;;;6186532;23;20258;-92
2021/12/09 16:14:33;;;;;;;32.50;16.30;;;;;;;;;;6186680;23;20599;-92
2021/12/09 16:17:05;;;;;;;30.00;15.83;;;;;;;;;;6185079;23;20171;-92
2021/12/09 16:19:38;;;;;;;11.03;5.60;;;;;;;;;;6186382;23;20206;-91
2021/12/09 16:22:28;;;;;;;8.00;4.40;;;;;;;;;;6186186;23;20175;-91
2021/12/09 16:24:57;;;;;;;9.27;4.90;;;;;;;;;;6184964;23;20177;-91
2021/12/09 16:27:25;;;;;;;7.23;4.40;;;;;;;;;;6184027;23;20186;-92
2021/12/09 16:29:53;;;;;;;7.40;4.63;;;;;;;;;;6186081;23;20206;-92
2021/12/09 16:32:22;;;;;;;7.87;4.20;;;;;;;;;;6184630;23;20684;-92
2021/12/09 16:34:51;;;;;;;6.33;4.37;;;;;;;;;;6184035;23;20179;-92
2021/12/09 16:37:29;;;;;;;6.90;4.50;;;;;;;;;;6190555;23;20178;-91
2021/12/09 16:39:56;;;;;;;7.93;4.00;;;;;;;;;;6186434;23;20540;-92
2021/12/09 16:42:23;;;;;;;10.47;4.73;;;;;;;;;;6186232;23;20229;-91